createdAt,value
2024-03-15T02:58:55.174Z,4.11
2024-03-15T03:01:41.181Z,4.09
2024-03-15T03:04:26.970Z,4.13
2024-03-15T03:07:12.730Z,4.16
2024-03-15T03:09:58.144Z,4.21
2024-03-15T03:12:43.731Z,4.25
2024-03-15T03:15:29.972Z,4.29
2024-03-15T03:18:16.745Z,4.34
2024-03-15T03:21:02.365Z,4.36
2024-03-15T03:23:48.180Z,4.37
2024-03-15T03:26:33.708Z,4.38
2024-03-15T03:29:20.481Z,4.36
2024-03-15T03:32:07.939Z,4.37
2024-03-15T03:34:54.965Z,4.36
2024-03-15T03:37:40.610Z,4.37
2024-03-15T03:40:27.116Z,4.37
2024-03-15T03:43:15.200Z,4.36
2024-03-15T03:46:01.552Z,4.36
2024-03-15T03:48:47.541Z,4.37
2024-03-15T03:51:33.131Z,4.37
2024-03-15T03:54:18.836Z,4.35
2024-03-15T03:57:04.819Z,4.33
2024-03-15T03:59:50.423Z,4.26
2024-03-15T04:02:35.905Z,4.18
2024-03-15T04:05:21.636Z,4.17
2024-03-15T04:08:07.437Z,4.16
2024-03-15T04:10:55.905Z,4.08
2024-03-15T04:13:42.183Z,4.03
2024-03-15T04:16:27.847Z,4.00
2024-03-15T04:19:14.492Z,3.94
2024-03-15T04:22:00.132Z,3.91
2024-03-15T04:24:46.050Z,3.88
2024-03-15T04:27:34.489Z,3.88
2024-03-15T04:30:23.136Z,3.83
2024-03-15T04:33:09.102Z,3.80
2024-03-15T04:35:55.391Z,3.81
2024-03-15T04:38:40.880Z,3.80
2024-03-15T04:41:26.545Z,3.82
2024-03-15T04:44:12.042Z,3.84
2024-03-15T04:46:58.381Z,3.87
2024-03-15T04:49:44.080Z,3.89
2024-03-15T04:52:30.840Z,3.88
2024-03-15T04:55:16.583Z,3.86
2024-03-15T04:58:03.602Z,3.83
2024-03-15T05:00:50.802Z,3.83
2024-03-15T05:03:36.875Z,3.83
2024-03-15T05:06:30.537Z,3.84
2024-03-15T05:09:17.242Z,3.84
2024-03-15T05:12:03.612Z,3.86
2024-03-15T05:14:49.119Z,3.88
2024-03-15T05:17:34.751Z,3.92
2024-03-15T05:20:21.313Z,3.91
2024-03-15T05:23:08.781Z,3.93
2024-03-15T05:25:55.328Z,3.93
2024-03-15T05:28:42.786Z,3.97
2024-03-15T05:31:30.074Z,4.00
2024-03-15T05:34:16.642Z,4.07
2024-03-15T05:37:04.335Z,4.16
2024-03-15T05:39:52.104Z,4.23
2024-03-15T05:42:37.408Z,4.33
2024-03-15T05:45:23.572Z,4.47
2024-03-15T05:48:09.145Z,4.63
2024-03-15T05:50:54.754Z,4.80
2024-03-15T05:53:40.631Z,4.98
2024-03-15T05:56:26.552Z,5.19
2024-03-15T05:59:13.336Z,5.36
2024-03-15T06:02:01.106Z,5.58
2024-03-15T06:04:50.425Z,5.78
2024-03-15T06:07:36.170Z,5.98
2024-03-15T06:10:31.636Z,6.11
2024-03-15T06:13:17.130Z,6.22
2024-03-15T06:16:11.390Z,6.33
2024-03-15T06:18:59.465Z,6.42
2024-03-15T06:21:46.561Z,6.45
2024-03-15T06:28:12.573Z,6.45
2024-03-15T06:31:00.281Z,6.42
2024-03-15T06:33:49.717Z,6.43
2024-03-15T06:36:43.497Z,6.47
2024-03-15T06:39:38.974Z,6.53
2024-03-15T06:42:25.564Z,6.60
2024-03-15T06:45:24.454Z,6.67
2024-03-15T06:48:23.087Z,6.79
2024-03-15T06:51:26.921Z,6.92
2024-03-15T06:54:15.003Z,7.00
2024-03-15T06:57:01.170Z,7.07
2024-03-15T06:59:46.760Z,7.14
2024-03-15T07:02:32.332Z,7.22
2024-03-15T07:05:17.798Z,7.32
2024-03-15T07:08:06.492Z,7.39
2024-03-15T07:10:54.617Z,7.49
2024-03-15T07:13:41.658Z,7.53
2024-03-15T07:16:28.829Z,7.54
2024-03-15T07:19:15.880Z,7.61
2024-03-15T07:22:02.095Z,7.72
2024-03-15T07:24:51.570Z,7.82
2024-03-15T07:27:38.801Z,7.87
2024-03-15T07:30:24.873Z,7.91
2024-03-15T07:33:11.062Z,7.91
2024-03-15T07:36:01.770Z,7.90
2024-03-15T07:38:48.610Z,7.94
2024-03-15T07:41:35.415Z,7.98
2024-03-15T07:44:23.840Z,8.06
2024-03-15T07:47:10.016Z,8.07
2024-03-15T07:49:56.246Z,8.14
2024-03-15T07:52:42.502Z,8.15
2024-03-15T07:55:28.399Z,8.20
2024-03-15T07:58:15.619Z,8.32
2024-03-15T08:01:02.411Z,8.39
2024-03-15T08:03:48.143Z,8.43
2024-03-15T08:06:33.952Z,8.52
2024-03-15T08:09:20.206Z,8.57
2024-03-15T08:12:07.226Z,8.60
2024-03-15T08:14:52.975Z,8.78
2024-03-15T08:17:39.044Z,8.91
2024-03-15T08:20:25.139Z,9.01
2024-03-15T08:23:11.616Z,8.95
2024-03-15T08:25:58.767Z,8.99
2024-03-15T08:28:46.313Z,9.00
2024-03-15T08:31:32.845Z,8.95
2024-03-15T08:34:19.805Z,9.03
2024-03-15T08:37:08.228Z,9.16
2024-03-15T08:39:53.552Z,9.21
2024-03-15T08:42:40.685Z,9.24
2024-03-15T08:45:26.379Z,9.29
2024-03-15T08:48:13.047Z,9.35
2024-03-15T08:50:59.081Z,9.29
2024-03-15T08:53:59.782Z,9.40
2024-03-15T08:56:46.824Z,9.45
2024-03-15T08:59:34.356Z,9.39
2024-03-15T09:02:20.106Z,9.42
2024-03-15T09:05:09.409Z,9.45
2024-03-15T09:07:55.170Z,9.44
2024-03-15T09:10:41.375Z,9.56
2024-03-15T09:13:27.540Z,9.56
2024-03-15T09:16:14.321Z,9.66
2024-03-15T09:18:59.920Z,9.81
2024-03-15T09:21:49.429Z,9.88
2024-03-15T09:24:35.496Z,10.06
2024-03-15T09:27:21.822Z,10.15
2024-03-15T09:30:16.985Z,10.29
2024-03-15T09:33:10.114Z,10.50
2024-03-15T09:35:56.624Z,10.51
2024-03-15T09:38:43.081Z,10.37
2024-03-15T09:41:32.494Z,10.50
2024-03-15T09:44:19.355Z,10.53
2024-03-15T09:47:14.802Z,10.49
2024-03-15T09:50:02.050Z,10.66
2024-03-15T09:52:50.771Z,10.62
2024-03-15T09:55:37.182Z,10.50
2024-03-15T10:01:43.491Z,10.84
2024-03-15T10:08:07.278Z,10.98
2024-03-15T10:10:52.740Z,10.95
2024-03-15T10:13:39.491Z,11.00
2024-03-15T10:16:30.535Z,10.95
2024-03-15T10:19:35.201Z,11.08
2024-03-15T10:22:23.570Z,11.01
2024-03-15T10:25:17.228Z,11.08
2024-03-15T10:28:04.694Z,11.25
2024-03-15T10:30:56.292Z,11.33
2024-03-15T10:33:45.411Z,11.25
2024-03-15T10:36:32.983Z,11.25
2024-03-15T10:39:18.806Z,11.18
2024-03-15T10:42:13.208Z,11.20
2024-03-15T10:44:58.818Z,11.18
2024-03-15T10:47:44.742Z,11.11
2024-03-15T10:50:30.835Z,11.12
2024-03-15T10:53:19.752Z,11.11
2024-03-15T10:56:07.710Z,11.06
2024-03-15T10:58:53.427Z,11.06
2024-03-15T11:01:40.918Z,11.12
2024-03-15T11:04:26.720Z,11.20
2024-03-15T11:07:12.538Z,11.17
2024-03-15T11:09:58.271Z,11.13
2024-03-15T11:12:51.151Z,11.03
2024-03-15T11:15:38.257Z,10.97
2024-03-15T11:18:24.078Z,10.91
2024-03-15T11:21:22.749Z,10.83
2024-03-15T11:24:14.918Z,10.74
2024-03-15T11:27:10.393Z,10.70
2024-03-15T11:29:57.621Z,10.72
2024-03-15T11:32:43.917Z,10.56
2024-03-15T11:35:30.228Z,10.57
2024-03-15T11:38:19.210Z,10.53
2024-03-15T11:41:05.188Z,10.55
2024-03-15T11:43:55.373Z,10.54
2024-03-15T11:46:47.960Z,10.55
2024-03-15T11:49:33.658Z,10.57
2024-03-15T11:52:19.295Z,10.55
2024-03-15T11:55:07.634Z,10.52
2024-03-15T11:57:53.395Z,10.44
2024-03-15T12:00:39.388Z,10.35
2024-03-15T12:03:27.106Z,10.30
2024-03-15T12:06:13.126Z,10.27
2024-03-15T12:09:04.148Z,10.31
2024-03-15T12:11:54.349Z,10.38
2024-03-15T12:14:40.804Z,10.38
2024-03-15T12:17:27.281Z,10.48
2024-03-15T12:20:13.004Z,10.52
2024-03-15T12:23:00.315Z,10.48
2024-03-15T12:25:47.285Z,10.45
2024-03-15T12:28:34.314Z,10.42
2024-03-15T12:31:20.180Z,10.44
2024-03-15T12:34:06.017Z,10.44
2024-03-15T12:36:52.855Z,10.45
2024-03-15T12:39:40.203Z,10.44
2024-03-15T12:42:26.941Z,10.49
2024-03-15T12:45:13.262Z,10.47
2024-03-15T12:47:59.211Z,10.47
2024-03-15T12:50:45.590Z,10.47
2024-03-15T12:53:31.185Z,10.47
2024-03-15T12:56:16.612Z,10.53
2024-03-15T12:59:01.868Z,10.65
2024-03-15T13:01:47.457Z,10.74
2024-03-15T13:04:33.189Z,10.87
2024-03-15T13:07:18.880Z,10.97
2024-03-15T13:10:04.764Z,11.08
2024-03-15T13:12:53.928Z,11.21
2024-03-15T13:19:32.602Z,11.51
2024-03-15T13:22:19.947Z,11.50
2024-03-15T13:25:14.668Z,11.48
2024-03-15T13:28:08.585Z,11.28
2024-03-15T13:30:55.265Z,11.05
2024-03-15T13:33:40.942Z,10.95
2024-03-15T13:36:28.306Z,10.90
2024-03-15T13:39:31.336Z,10.82
2024-03-15T13:42:34.538Z,10.78
2024-03-15T13:45:23.455Z,10.85
2024-03-15T13:48:28.447Z,10.74
2024-03-15T13:51:14.684Z,10.67
2024-03-15T13:54:01.630Z,10.68
2024-03-15T13:56:47.790Z,10.69
2024-03-15T13:59:34.364Z,10.61
2024-03-15T14:02:19.957Z,10.52
2024-03-15T14:05:07.706Z,10.50
2024-03-15T14:07:53.830Z,10.53
2024-03-15T14:10:43.253Z,10.52
2024-03-15T14:13:30.516Z,10.57
2024-03-15T14:16:17.095Z,10.58
2024-03-15T14:19:05.486Z,10.55
2024-03-15T14:21:51.751Z,10.54
2024-03-15T14:24:37.363Z,10.42
2024-03-15T14:27:23.213Z,10.37
2024-03-15T14:30:12.028Z,10.27
2024-03-15T14:32:59.758Z,10.16
2024-03-15T14:35:49.631Z,10.08
2024-03-15T14:38:39.571Z,9.99
2024-03-15T14:41:24.999Z,9.97
2024-03-15T14:44:14.007Z,9.87
2024-03-15T14:46:59.734Z,9.84
2024-03-15T14:49:45.340Z,9.70
2024-03-15T14:52:37.296Z,9.59
2024-03-15T14:55:25.591Z,9.52
2024-03-15T14:58:15.220Z,9.45
2024-03-15T15:01:01.569Z,9.44
2024-03-15T15:03:49.932Z,9.36
2024-03-15T15:06:35.858Z,9.34
2024-03-15T15:09:22.215Z,9.31
2024-03-15T15:12:08.036Z,9.27
2024-03-15T15:14:53.911Z,9.26
2024-03-15T15:17:42.390Z,9.24
2024-03-15T15:20:29.477Z,9.21
2024-03-15T15:26:22.848Z,9.10
2024-03-15T15:29:08.871Z,9.04
2024-03-15T15:31:58.074Z,9.00
2024-03-15T15:34:43.320Z,8.97
2024-03-15T15:37:28.836Z,8.92
2024-03-15T15:40:15.449Z,8.86
2024-03-15T15:43:02.056Z,8.84
2024-03-15T15:45:52.264Z,8.79
2024-03-15T15:48:38.692Z,8.76
2024-03-15T15:51:28.624Z,8.72
2024-03-15T15:54:15.615Z,8.67
2024-03-15T15:57:02.159Z,8.62
2024-03-15T15:59:47.502Z,8.54
2024-03-15T16:02:34.019Z,8.46
2024-03-15T16:05:20.062Z,8.42
2024-03-15T16:08:07.821Z,8.43
2024-03-15T16:10:53.898Z,8.43
2024-03-15T16:13:40.135Z,8.47
2024-03-15T16:16:25.459Z,8.47
2024-03-15T16:19:13.044Z,8.49
2024-03-15T16:22:03.520Z,8.50
2024-03-15T16:24:49.187Z,8.52
2024-03-15T16:27:38.357Z,8.53
2024-03-15T16:30:25.769Z,8.47
2024-03-15T16:33:15.827Z,8.44
2024-03-15T16:36:01.576Z,8.38
2024-03-15T16:38:47.093Z,8.34
2024-03-15T16:41:37.312Z,8.29
2024-03-15T16:44:25.854Z,8.29
2024-03-15T16:47:11.400Z,8.32
2024-03-15T16:49:57.033Z,8.33
2024-03-15T16:52:43.052Z,8.33
2024-03-15T16:55:29.332Z,8.31
2024-03-15T16:58:15.431Z,8.29
2024-03-15T17:01:03.594Z,8.29
2024-03-15T17:03:49.066Z,8.29
2024-03-15T17:06:37.128Z,8.28
2024-03-15T17:09:26.090Z,8.22
2024-03-15T17:12:11.854Z,8.17
2024-03-15T17:14:59.063Z,8.15
2024-03-15T17:17:45.047Z,8.13
2024-03-15T17:20:33.919Z,8.14
2024-03-15T17:23:22.453Z,8.18
2024-03-15T17:26:08.130Z,8.19
2024-03-15T17:28:53.876Z,8.22
2024-03-15T17:35:29.111Z,8.23
2024-03-15T17:38:14.517Z,8.20
2024-03-15T17:41:00.513Z,8.16
2024-03-15T17:43:46.954Z,8.14
2024-03-15T17:46:32.447Z,8.13
2024-03-15T17:49:18.940Z,8.12
2024-03-15T17:52:06.245Z,8.09
2024-03-15T17:54:51.852Z,8.09
2024-03-15T17:57:37.776Z,8.13
2024-03-15T18:00:25.724Z,8.16
2024-03-15T18:03:11.498Z,8.19
2024-03-15T18:05:57.423Z,8.18
2024-03-15T18:08:43.386Z,8.16
2024-03-15T18:11:30.491Z,8.11
2024-03-15T18:14:16.407Z,8.08
2024-03-15T18:17:01.775Z,8.03
2024-03-15T18:19:49.160Z,8.01
2024-03-15T18:22:34.552Z,8.00
2024-03-15T18:25:19.878Z,7.97
2024-03-15T18:28:06.544Z,7.94
2024-03-15T18:30:52.188Z,7.89
2024-03-15T18:33:39.156Z,7.86
2024-03-15T18:36:25.790Z,7.82
2024-03-15T18:39:11.727Z,7.80
2024-03-15T18:41:57.622Z,7.77
2024-03-15T18:44:43.277Z,7.75
2024-03-15T18:47:29.875Z,7.75
2024-03-15T18:50:15.766Z,7.75
2024-03-15T18:53:01.120Z,7.72
2024-03-15T18:55:47.638Z,7.71
2024-03-15T18:58:33.281Z,7.69
2024-03-15T19:01:21.074Z,7.67
2024-03-15T19:04:07.118Z,7.67
2024-03-15T19:06:52.857Z,7.65
2024-03-15T19:09:39.196Z,7.65
2024-03-15T19:12:25.867Z,7.66
2024-03-15T19:15:11.971Z,7.66
2024-03-15T19:17:57.452Z,7.66
2024-03-15T19:20:43.522Z,7.61
2024-03-15T19:23:31.021Z,7.57
2024-03-15T19:26:17.029Z,7.55
2024-03-15T19:29:02.859Z,7.54
2024-03-15T19:31:50.725Z,7.50
2024-03-15T19:34:36.810Z,7.49
2024-03-15T19:37:23.436Z,7.46
2024-03-15T19:40:11.217Z,7.44
2024-03-15T19:42:58.181Z,7.42
2024-03-15T19:45:44.672Z,7.44
2024-03-15T19:48:30.604Z,7.50
2024-03-15T19:51:19.957Z,7.54
2024-03-15T19:54:05.768Z,7.59
2024-03-15T19:56:51.943Z,7.63
2024-03-15T19:59:37.605Z,7.63
2024-03-15T20:02:23.965Z,7.65
2024-03-15T20:05:09.559Z,7.67
2024-03-15T20:07:55.014Z,7.68
2024-03-15T20:10:41.059Z,7.66
2024-03-15T20:13:26.576Z,7.64
2024-03-15T20:16:14.145Z,7.63
2024-03-15T20:18:59.508Z,7.63
2024-03-15T20:21:45.394Z,7.66
2024-03-15T20:24:31.372Z,7.70
2024-03-15T20:27:16.708Z,7.73
2024-03-15T20:30:04.986Z,7.78
2024-03-15T20:32:50.988Z,7.79
2024-03-15T20:35:36.511Z,7.81
2024-03-15T20:38:22.137Z,7.81
2024-03-15T20:41:08.173Z,7.83
2024-03-15T20:43:54.116Z,7.83
2024-03-15T20:46:39.773Z,7.84
2024-03-15T20:49:25.838Z,7.86
2024-03-15T20:52:11.287Z,7.91
2024-03-15T20:54:56.707Z,7.93
2024-03-15T20:57:42.113Z,7.96
2024-03-15T21:00:28.109Z,7.96
2024-03-15T21:03:14.544Z,7.97
2024-03-15T21:06:00.047Z,7.97
2024-03-15T21:08:46.473Z,8.00
2024-03-15T21:11:32.161Z,8.04
2024-03-15T21:14:18.880Z,8.06
2024-03-15T21:17:06.215Z,8.09
2024-03-15T21:19:52.593Z,8.09
2024-03-15T21:22:37.981Z,8.05
2024-03-15T21:25:29.224Z,8.01
2024-03-15T21:28:14.940Z,7.99
2024-03-15T21:31:00.195Z,7.96
2024-03-15T21:33:47.888Z,7.94
2024-03-15T21:36:33.815Z,7.96
2024-03-15T21:39:21.622Z,7.93
2024-03-15T21:42:07.593Z,7.94
2024-03-15T21:44:53.269Z,7.94
2024-03-15T21:47:41.022Z,7.94
2024-03-15T21:50:27.899Z,7.92
2024-03-15T21:53:14.390Z,7.89
2024-03-15T21:55:59.877Z,7.84
2024-03-15T21:58:45.516Z,7.82
2024-03-15T22:01:37.737Z,7.82
2024-03-15T22:04:30.540Z,7.81
2024-03-15T22:07:16.677Z,7.78
2024-03-15T22:10:02.619Z,7.78
2024-03-15T22:12:49.045Z,7.82
2024-03-15T22:15:35.016Z,7.80
2024-03-15T22:18:20.931Z,7.79
2024-03-15T22:21:06.394Z,7.77
2024-03-15T22:23:51.834Z,7.76
2024-03-15T22:26:38.220Z,7.73
2024-03-15T22:29:24.075Z,7.72
2024-03-15T22:32:11.905Z,7.69
2024-03-15T22:34:57.630Z,7.68
2024-03-15T22:37:45.910Z,7.67
2024-03-15T22:40:31.734Z,7.68
2024-03-15T22:43:16.979Z,7.67
2024-03-15T22:46:02.271Z,7.69
2024-03-15T22:48:48.201Z,7.68
2024-03-15T22:51:34.302Z,7.66
2024-03-15T22:54:19.512Z,7.65
2024-03-15T22:57:05.153Z,7.65
2024-03-15T22:59:51.258Z,7.63
2024-03-15T23:02:36.830Z,7.60
2024-03-15T23:05:22.311Z,7.61
2024-03-15T23:08:07.593Z,7.66
2024-03-15T23:10:54.406Z,7.68
2024-03-15T23:13:39.926Z,7.68
2024-03-15T23:16:25.986Z,7.68
2024-03-15T23:19:12.654Z,7.66
2024-03-15T23:21:59.591Z,7.60
2024-03-15T23:24:48.407Z,7.59
2024-03-15T23:27:39.322Z,7.57
2024-03-15T23:30:25.203Z,7.59
2024-03-15T23:33:14.922Z,7.61
2024-03-15T23:36:00.418Z,7.62
2024-03-15T23:38:46.385Z,7.64
2024-03-15T23:41:33.953Z,7.62
2024-03-15T23:44:20.138Z,7.61
2024-03-15T23:47:06.313Z,7.57
2024-03-15T23:49:52.450Z,7.56
2024-03-15T23:52:38.112Z,7.59
2024-03-15T23:55:23.657Z,7.64
2024-03-15T23:58:09.148Z,7.69
